TOURFACTS.DK  
Stats and Facts from Tour de France.

Tour de France 2019 starts in 323 days
  Riders   Stages   Teams   Summits   Yearly  


 
Search by year

After 2018 - Stage 21:
 15000 starters.
  5165 different riders.
  638 teams.
  2253 stages.
  456 restdays.
  442940.60 km.
  5684 abandonnees.


Top 3
GC
Geraint Thomas83:17:13
Tom Dumoulin83:19:04
Christopher Froome83:19:37
Climb
Julian Alaphilippe170 pt.
Warren Barguil91 pt.
Rafal Majka76 pt.
Sprint
Peter Sagan477 pt.
Alexander Kristoff246 pt.
Arnaud Démare203 pt.
Youth
Pierre-Roger Latou..83:39:26
Egan Bernal83:45:05
Guillaume Martin84:01:31
Facts from Tour de France 1949
  |   Stages.  |   Stage winners.  |   Days in yellow  |   Average speed.  |   Route.  |   Teams.  |   All riders.  |   Rookies.  |  

  |   Withdrawls.  |   GC.  |   Polka  |   Green  |   White  |   Summits. (In tour)  |   Miscellaneous.  |  

Stage 9 on 09 - 07 - 1949
         Owning:    Jacques Marinelli    
Pick a stage:  1 2 3 4 5 6 7 8 9 10 11 12 13 14 15 16 17 18 19 20 21
  BordeauxSan-Sebastian | Dist: 228.00 km.

Average speed for all riders in stage:  34,464 km./hr.
    Place:Name:Team:Time:Km/h:
1
FRALouis CaputFRAIle De France06:30:49  +  00:00:00=35,004 
2
BELStan OckersBELBelgium06:30:49  +  00:00:00=35,004 
3
ITALuciano PezziITAItaly06:30:49  +  00:00:00=35,004 
44 BELMarcel De MulderBELAiglons Belges06:30:49  +  00:00:00=35,004 
55 BELMarcel DupontBELAiglons Belges06:30:49  +  00:00:00=35,004 
66 ITAGino SciardisITAItaly06:32:20  +  00:01:31=34,868 
77 FRARobert ChapatteFRAFrance06:32:20  +  00:01:31=34,868 
88 FRAPierre CoganFRAWest-North06:32:20  +  00:01:31=34,868 
99 FRARoger LevequeFRACenter-South West06:32:20  +  00:01:31=34,868 
1010 LUXJean KirchenLUXLuxembourg06:32:20  +  00:01:31=34,868 
1111 LUXJean DiederichLUXLuxembourg06:32:20  +  00:01:31=34,868 
1212 ITAÉdouard FachleitnerFRASouth-East06:32:20  +  00:01:31=34,868 
1313 FRAJean-Apotre LazaridesFRAFrance06:32:26  +  00:01:37=34,859 
1414 FRAAndre MahéFRAWest-North06:33:23  +  00:02:34=34,775 
1515 FRAAntonin RollandFRASouth-East06:33:23  +  00:02:34=34,775 
1616 FRAPaul PineauFRACenter-South West06:33:26  +  00:02:37=34,771 
1717 FRAJean-Marie GoasmatFRAWest-North06:33:26  +  00:02:37=34,771 
1818 BELMarcel HendrickxBELAiglons Belges06:34:28  +  00:03:39=34,680 
1919 BELRik Van SteenbergenBELBelgium06:34:40  +  00:03:51=34,662 
2020 FRAMaurice DiotFRAFrance06:34:40  +  00:03:51=34,662 
2121 MARCustodio Dos ReisFRACenter-South West06:34:40  +  00:03:51=34,662 
2222 BELFlorent MathieuBELBelgium06:34:40  +  00:03:51=34,662 
2323 NEDHenk de HoogNLDHolland06:34:40  +  00:03:51=34,662 
2424 ITAAlfredo MartiniITACadetti Italiens06:34:40  +  00:03:51=34,662 
2525 ITAArmando PeverelliITACadetti Italiens06:34:40  +  00:03:51=34,662 
2626 FRALucien TeisseireFRAFrance06:34:40  +  00:03:51=34,662 
2727 LUXJean GoldschmitLUXLuxembourg06:34:40  +  00:03:51=34,662 
2828 ITASylvio PedroniITACadetti Italiens06:34:40  +  00:03:51=34,662 
2929 ITAVittorio MagniITACadetti Italiens06:34:40  +  00:03:51=34,662 
3030 BELJoseph VerhaertBELAiglons Belges06:34:40  +  00:03:51=34,662 
3131 ITAAdolphe DeleddaFRASouth-East06:34:40  +  00:03:51=34,662 
3232 ITAFermo CamelliniFRASouth-East06:34:40  +  00:03:51=34,662 
3333 FRAHenri MassalFRACenter-South West06:34:40  +  00:03:51=34,662 
3434 FRARobert DesbatsFRACenter-South West06:34:40  +  00:03:51=34,662 
3535 FRAGeorges MartinFRASouth-East06:34:40  +  00:03:51=34,662 
3636 FRAJean RobicFRAWest-North06:34:40  +  00:03:51=34,662 
3737 FRAGuy LapébieFRAFrance06:34:40  +  00:03:51=34,662 
3838 FRAJacques MarinelliFRAIle De France06:34:40  +  00:03:51=34,662 
3939 FRAEmile IdéeFRAIle De France06:34:40  +  00:03:51=34,662 
4040 FRAAndré BruléFRAIle De France06:34:40  +  00:03:51=34,662 
4141 FRAPaul GiguetFRASouth-East06:34:40  +  00:03:51=34,662 
4242 LUXMarcel ErnzerLUXLuxembourg06:34:40  +  00:03:51=34,662 
4343 ITAEttore MilanoITAItaly06:34:40  +  00:03:51=34,662 
4444 FRALouis DeprezFRAFrance06:34:40  +  00:03:51=34,662 
4545 FRACamille DanguillaumeFRAFrance06:34:40  +  00:03:51=34,662 
4646 ITABruno PasquiniITAItaly06:34:40  +  00:03:51=34,662 
4747 BELEdward Van DijckBELBelgium06:34:40  +  00:03:51=34,662 
4848 ITAVincenzo RosselloITAItaly06:34:40  +  00:03:51=34,662 
4949 BELRaymond ImpanisBELBelgium06:34:40  +  00:03:51=34,662 
5050 BELDésiré KeteleerBELBelgium06:34:40  +  00:03:51=34,662 
5151 BELRoger LambrechtBELBelgium06:34:40  +  00:03:51=34,662 
5252 ITAGiuseppe TaccaFRAIle De France06:34:40  +  00:03:51=34,662 
5353 ITAFausto CoppiITAItaly06:34:40  +  00:03:51=34,662 
5454 ITAGino BartaliITAItaly06:34:40  +  00:03:51=34,662 
5555 FRARené ViettoFRAFrance06:34:40  +  00:03:51=34,662 
5656 SUIGeorges AeschlimannCHESwitzerland06:34:40  +  00:03:51=34,662 
5757 ITASerifano BiagioniITAItaly06:34:40  +  00:03:51=34,662 
5858 SUIFerdi KüblerCHESwitzerland06:34:40  +  00:03:51=34,662 
5959 NEDWim De RuyterNLDHolland06:36:28  +  00:05:39=34,505 
6060 ITANello LaurediFRASouth-East06:36:28  +  00:05:39=34,505 
6161 SUIPierre BrambillaFRASouth-East06:36:28  +  00:05:39=34,505 
6262 BELBriek SchotteBELBelgium06:36:28  +  00:05:39=34,505 
6363 FRAGeorges RamouluxFRACenter-South West06:36:28  +  00:05:39=34,505 
6464 FRARoger Le NizerhyFRAWest-North06:39:00  +  00:08:11=34,286 
6565 BELMarcel KintBELBelgium06:39:00  +  00:08:11=34,286 
6666 FRAJean BlancFRACenter-South West06:40:25  +  00:09:36=34,164 
6767 FRAAlbert DolhatsFRACenter-South West06:41:25  +  00:10:36=34,079 
6868 ITAGiovanni CorrieriITAItaly06:41:25  +  00:10:36=34,079 
6969 ITAAngelo BrignoleITAItaly06:41:25  +  00:10:36=34,079 
7070 FRARaymond LucasFRAIle De France06:42:04  +  00:11:15=34,024 
7171 BELNorbert CallensBELBelgium06:44:05  +  00:13:16=33,854 
7272 FRALucien LazaridesFRAFrance06:44:05  +  00:13:16=33,854 
7373 ITAGiuseppe AusendaITACadetti Italiens06:44:05  +  00:13:16=33,854 
7474 FRARaphaël GeminianiFRAFrance06:44:05  +  00:13:16=33,854 
7575 SUIRoger AeschlimannCHESwitzerland06:44:05  +  00:13:16=33,854 
7676 NEDFrans PauwelsNLDHolland06:44:05  +  00:13:16=33,854 
7777 BELRoger GhyselinckBELBelgium06:44:05  +  00:13:16=33,854 
7878 FRAJean ReyFRASouth-East06:44:05  +  00:13:16=33,854 
7979 SUIGottfried WeilenmannCHESwitzerland06:45:05  +  00:14:16=33,771 
8080 ITAMario RicciITAItaly06:46:40  +  00:15:51=33,639 
8181 ITAGuido De SantiITAItaly06:46:41  +  00:15:52=33,638 
8282 BELJacques GeusBELAiglons Belges06:46:52  +  00:16:03=33,623 
8383 GERCésar MarcelakFRAWest-North06:49:04  +  00:18:15=33,442 
8484 FRABernard GauthierFRAFrance06:51:44  +  00:20:55=33,225 
8585 FRALouison BobetFRAFrance06:51:44  +  00:20:55=33,225 
8686 FRAEdouard MullerFRAIle De France06:51:44  +  00:20:55=33,225 

Todays birthdays.

1874  Achille Colas
1895  Lucien Meunier
1902  Lazare Venot
1915  Albert Gijsen
1924  Marcel Zelasco
1930  Juan Campillo
1931  Jean-Claude Skerl
1934  Jean Selic
1935  Arnaldo Pambianco
1955  Mario Beccia
1956  Daniel Willems
1957  Dominique Sanders
1959  Marc Sergeant
1960  Éric Caritoux
1963  Jelle Nijdam
1971  Arnaud Prétot
1980  Piet Rooijakkers